Time;durP1;ratioP1;P1;durP2;ratioP2;P2;SDS_P1;SDS_P2;PMS_P1;PMS_P2;Temp;Humidity;BMP_temperature;BMP_pressure;BME280_temperature;BME280_humidity;BME280_pressure;Samples;Min_cycle;Max_cycle;Signal;HPM_P1;HPM_P2
2023/03/12 00:01:24;;;;;;;;;;;;;;;25.58;40.97;93782.63;4973188;28;8297;-61
2023/03/12 00:03:52;;;;;;;;;;;;;;;25.59;40.78;93781.34;4979050;28;8585;-61
2023/03/12 00:06:27;;;;;;;;;;;;;;;25.59;41.39;93778.59;4969615;28;9384;-61
2023/03/12 00:08:56;;;;;;;;;;;;;;;25.58;40.56;93786.09;4970099;28;7058;-61
2023/03/12 00:11:22;;;;;;;;;;;;;;;25.58;40.43;93786.09;4973693;28;9380;-61
2023/03/12 00:14:00;;;;;;;;;;;;;;;25.60;40.70;93785.59;4968045;28;7448;-61
2023/03/12 00:16:32;;;;;;;;;;;;;;;25.59;41.01;93786.84;5001080;28;8532;-61
2023/03/12 00:19:00;;;;;;;;;;;;;;;25.56;40.50;93782.38;4969488;28;7236;-61
2023/03/12 00:21:34;;;;;;;;;;;;;;;25.55;41.15;93778.91;4955918;28;7238;-61
2023/03/12 00:24:15;;;;;;;;;;;;;;;25.57;41.18;93781.88;4960949;28;7255;-61
2023/03/12 00:26:42;;;;;;;;;;;;;;;25.58;40.40;93780.59;4963004;28;9995;-61
2023/03/12 00:29:10;;;;;;;;;;;;;;;25.57;40.55;93779.13;4978621;28;8831;-61
2023/03/12 00:31:47;;;;;;;;;;;;;;;25.56;40.62;93777.63;4963847;28;7438;-61
2023/03/12 00:34:13;;;;;;;;;;;;;;;25.58;41.38;93774.38;4990281;28;9347;-61
2023/03/12 00:36:40;;;;;;;;;;;;;;;25.58;40.37;93786.09;4967583;28;9436;-61
2023/03/12 00:39:06;;;;;;;;;;;;;;;25.58;41.07;93780.59;4965034;28;8076;-60
2023/03/12 00:41:32;;;;;;;;;;;;;;;25.59;41.24;93778.59;4963293;28;7250;-61
2023/03/12 00:43:59;;;;;;;;;;;;;;;25.56;40.89;93787.91;4961605;28;9070;-61
2023/03/12 00:46:25;;;;;;;;;;;;;;;25.57;40.77;93779.13;4965470;28;7052;-61
2023/03/12 00:48:54;;;;;;;;;;;;;;;25.57;41.00;93784.63;4970248;28;9473;-61
2023/03/12 00:51:20;;;;;;;;;;;;;;;25.58;41.42;93785.38;4975261;28;9044;-61
2023/03/12 00:53:46;;;;;;;;;;;;;;;25.57;41.05;93786.66;4963356;28;8705;-61
2023/03/12 00:56:12;;;;;;;;;;;;;;;25.55;40.58;93787.19;4967807;28;7037;-61
2023/03/12 00:58:41;;;;;;;;;;;;;;;25.56;40.34;93791.41;4943179;28;7249;-61
2023/03/12 01:01:08;;;;;;;;;;;;;;;25.55;41.10;93795.44;4968912;28;9013;-61
2023/03/12 01:03:34;;;;;;;;;;;;;;;25.55;40.31;93792.69;4967108;28;9028;-61
2023/03/12 01:06:03;;;;;;;;;;;;;;;25.56;40.86;93799.66;4981553;28;8305;-61
2023/03/12 01:08:29;;;;;;;;;;;;;;;25.54;40.98;93790.44;4970000;28;7002;-61
2023/03/12 01:10:56;;;;;;;;;;;;;;;25.54;40.22;93802.19;4974736;28;9054;-61
2023/03/12 01:13:22;;;;;;;;;;;;;;;25.55;40.67;93800.19;4984593;28;9045;-61
2023/03/12 01:15:48;;;;;;;;;;;;;;;25.53;40.74;93795.22;4958366;28;7275;-61
2023/03/12 01:18:16;;;;;;;;;;;;;;;25.56;40.66;93793.41;4973256;28;9036;-61
2023/03/12 01:20:45;;;;;;;;;;;;;;;25.55;40.82;93797.44;4964998;28;8963;-61
2023/03/12 01:23:13;;;;;;;;;;;;;;;25.55;40.79;93786.44;4987978;28;8496;-61
2023/03/12 01:25:40;;;;;;;;;;;;;;;25.55;40.99;93789.94;4981468;28;7210;-61
2023/03/12 01:28:07;;;;;;;;;;;;;;;25.52;41.06;93782.72;4955534;28;9335;-61
2023/03/12 01:30:37;;;;;;;;;;;;;;;25.54;40.46;93790.44;4973592;28;9474;-61
2023/03/12 01:33:06;;;;;;;;;;;;;;;25.52;40.44;93792.97;4972566;28;7260;-61
2023/03/12 01:35:43;;;;;;;;;;;;;;;25.55;40.73;93791.94;4975220;28;7180;-61
2023/03/12 01:38:14;;;;;;;;;;;;;;;25.55;40.14;93795.44;4971893;28;7239;-61
2023/03/12 01:40:42;;;;;;;;;;;;;;;25.55;40.32;93794.69;4989232;28;7517;-61
2023/03/12 01:43:33;;;;;;;;;;;;;;;25.52;40.07;93787.47;4971041;28;9037;-61
2023/03/12 01:46:44;;;;;;;;;;;;;;;25.52;40.00;93790.97;4967953;28;9497;-61
2023/03/12 01:49:29;;;;;;;;;;;;;;;25.54;40.00;93795.94;4975487;28;7257;-61
2023/03/12 01:52:18;;;;;;;;;;;;;;;25.52;40.21;93798.47;4975986;28;9151;-61
2023/03/12 01:55:13;;;;;;;;;;;;;;;25.51;40.37;93789.50;4972533;28;8960;-61
2023/03/12 01:58:15;;;;;;;;;;;;;;;25.51;40.02;93791.50;4972668;28;7041;-61
2023/03/12 02:00:42;;;;;;;;;;;;;;;25.52;40.03;93788.22;4944479;28;8493;-61
2023/03/12 02:03:09;;;;;;;;;;;;;;;25.52;40.66;93790.22;4955930;28;7274;-61
2023/03/12 02:05:46;;;;;;;;;;;;;;;25.51;40.00;93791.50;4967023;28;7065;-61
2023/03/12 02:08:38;;;;;;;;;;;;;;;25.51;40.43;93789.50;4950929;28;9039;-61
2023/03/12 02:11:05;;;;;;;;;;;;;;;25.54;40.38;93795.94;4971488;28;7237;-61
2023/03/12 02:13:32;;;;;;;;;;;;;;;25.51;40.26;93797.00;4954822;28;6860;-61
2023/03/12 02:15:59;;;;;;;;;;;;;;;25.52;40.17;93798.47;4954696;28;7833;-61
2023/03/12 02:18:29;;;;;;;;;;;;;;;25.54;40.25;93801.44;4941446;28;9606;-61
2023/03/12 02:21:12;;;;;;;;;;;;;;;25.54;40.89;93804.19;4974668;28;9419;-61
2023/03/12 02:23:42;;;;;;;;;;;;;;;25.52;40.35;93793.72;4952002;28;9162;-61
2023/03/12 02:26:10;;;;;;;;;;;;;;;25.54;40.13;93802.19;4967705;28;8783;-61
2023/03/12 02:28:42;;;;;;;;;;;;;;;25.53;39.68;93800.72;4961327;28;9367;-61
2023/03/12 02:31:17;;;;;;;;;;;;;;;25.52;40.02;93799.22;4954599;28;7328;-61
2023/03/12 02:33:50;;;;;;;;;;;;;;;25.52;40.12;93806.75;4973307;28;7042;-61
2023/03/12 02:36:19;;;;;;;;;;;;;;;25.51;40.27;93802.50;4966263;28;7289;-61
2023/03/12 02:39:14;;;;;;;;;;;;;;;25.54;40.66;93804.19;4999617;28;9184;-61
2023/03/12 02:42:16;;;;;;;;;;;;;;;25.52;40.83;93804.72;4969268;28;9453;-61
2023/03/12 02:44:55;;;;;;;;;;;;;;;25.51;40.05;93808.78;4918674;29;7038;-61
2023/03/12 02:47:32;;;;;;;;;;;;;;;25.52;39.71;93809.50;4920903;29;9141;-61
2023/03/12 02:50:16;;;;;;;;;;;;;;;25.52;39.75;93809.50;4927406;29;9371;-61
2023/03/12 02:53:01;;;;;;;;;;;;;;;25.53;40.26;93814.50;4934515;29;9324;-61
2023/03/12 02:55:36;;;;;;;;;;;;;;;25.51;40.45;93808.03;4931974;29;7019;-61
2023/03/12 02:58:04;;;;;;;;;;;;;;;25.52;40.10;93815.75;4915829;29;7687;-61
2023/03/12 03:00:41;;;;;;;;;;;;;;;25.50;40.03;93817.53;4931643;28;7191;-61
2023/03/12 03:03:07;;;;;;;;;;;;;;;25.51;40.27;93814.28;4917144;29;7498;-61
2023/03/12 03:05:38;;;;;;;;;;;;;;;25.51;40.11;93810.78;4929908;29;8228;-61
2023/03/12 03:08:34;;;;;;;;;;;;;;;25.51;40.56;93817.03;4933949;29;9053;-61
2023/03/12 03:11:02;;;;;;;;;;;;;;;25.52;40.17;93815.75;4934791;29;7374;-61
2023/03/12 03:13:29;;;;;;;;;;;;;;;25.51;39.64;93819.03;4931097;29;7031;-61
2023/03/12 03:16:05;;;;;;;;;;;;;;;25.54;40.03;93817.97;4929349;29;8998;-61
2023/03/12 03:19:04;;;;;;;;;;;;;;;25.53;40.19;93816.50;4944334;28;7028;-61
2023/03/12 03:21:33;;;;;;;;;;;;;;;25.51;39.71;93808.03;4966074;28;9450;-61
2023/03/12 03:24:09;;;;;;;;;;;;;;;25.50;39.79;93807.28;4957458;28;6877;-61
2023/03/12 03:26:51;;;;;;;;;;;;;;;25.50;39.77;93801.75;4973506;28;9068;-61
2023/03/12 03:29:17;;;;;;;;;;;;;;;25.50;40.55;93810.03;4973376;28;8955;-61
2023/03/12 03:31:46;;;;;;;;;;;;;;;25.50;40.07;93801.00;4977639;28;7492;-61
2023/03/12 03:34:19;;;;;;;;;;;;;;;25.52;40.53;93810.25;5002206;28;8764;-61
2023/03/12 03:36:51;;;;;;;;;;;;;;;25.51;40.14;93797.75;4973649;28;9412;-61
2023/03/12 03:39:19;;;;;;;;;;;;;;;25.52;40.02;93801.97;4972679;28;9172;-61
2023/03/12 03:41:53;;;;;;;;;;;;;;;25.50;40.06;93801.00;4967423;28;9230;-61
2023/03/12 03:44:21;;;;;;;;;;;;;;;25.53;39.73;93803.47;4970440;28;8955;-61
2023/03/12 03:47:01;;;;;;;;;;;;;;;25.52;40.11;93809.50;4955942;28;7359;-62
2023/03/12 03:49:28;;;;;;;;;;;;;;;25.52;39.89;93810.25;4977290;28;9429;-61
2023/03/12 03:51:55;;;;;;;;;;;;;;;25.51;40.30;93795.00;4972359;28;7014;-61
2023/03/12 03:54:23;;;;;;;;;;;;;;;25.49;39.45;93794.03;4973420;28;9064;-61
2023/03/12 03:57:01;;;;;;;;;;;;;;;25.50;39.75;93796.25;4972818;28;7125;-61
2023/03/12 03:59:38;;;;;;;;;;;;;;;25.51;39.82;93803.25;4970543;28;7252;-61
2023/03/12 04:02:06;;;;;;;;;;;;;;;25.52;39.38;93804.72;4970256;28;7250;-61
2023/03/12 04:04:42;;;;;;;;;;;;;;;25.48;40.00;93787.78;4968537;28;9037;-61
2023/03/12 04:07:08;;;;;;;;;;;;;;;25.48;39.54;93781.53;4976395;28;7252;-61
2023/03/12 04:09:38;;;;;;;;;;;;;;;25.50;39.46;93785.25;4975506;28;7287;-61
2023/03/12 04:12:31;;;;;;;;;;;;;;;25.51;40.20;93780.47;4983760;28;7237;-61
2023/03/12 04:14:57;;;;;;;;;;;;;;;25.49;39.75;93772.72;4984672;28;7636;-61
2023/03/12 04:17:23;;;;;;;;;;;;;;;25.50;39.74;93774.22;4994107;28;8400;-60
2023/03/12 04:19:49;;;;;;;;;;;;;;;25.50;39.82;93776.97;4970438;28;8876;-61
2023/03/12 04:22:15;;;;;;;;;;;;;;;25.50;40.17;93776.22;4970224;28;9014;-61
2023/03/12 04:24:42;;;;;;;;;;;;;;;25.49;39.24;93786.50;4987212;28;9047;-61
2023/03/12 04:27:09;;;;;;;;;;;;;;;25.51;39.77;93786.75;4980238;28;7039;-61
2023/03/12 04:29:38;;;;;;;;;;;;;;;25.51;40.22;93781.22;4971229;28;9293;-61
2023/03/12 04:32:05;;;;;;;;;;;;;;;25.51;39.31;93786.00;4961951;28;8258;-62
2023/03/12 04:34:33;;;;;;;;;;;;;;;25.52;39.37;93792.97;4965116;28;9257;-61
2023/03/12 04:37:05;;;;;;;;;;;;;;;25.49;40.38;93786.50;4978160;28;8589;-62
2023/03/12 04:39:31;;;;;;;;;;;;;;;25.50;39.58;93790.00;4955595;28;7221;-61
2023/03/12 04:41:57;;;;;;;;;;;;;;;25.50;39.38;93790.00;4968287;28;9445;-61
2023/03/12 04:44:22;;;;;;;;;;;;;;;25.49;38.99;93794.03;4959446;28;9477;-61
2023/03/12 04:46:48;;;;;;;;;;;;;;;25.49;39.34;93799.53;4987203;28;8697;-62
2023/03/12 04:49:15;;;;;;;;;;;;;;;25.45;40.07;93791.56;4970822;28;9184;-61
2023/03/12 04:51:44;;;;;;;;;;;;;;;25.48;40.14;93792.53;4974246;28;7111;-61
2023/03/12 04:54:19;;;;;;;;;;;;;;;25.47;39.26;93796.56;4961121;28;9485;-61
2023/03/12 04:57:02;;;;;;;;;;;;;;;25.49;39.65;93794.75;4966528;28;7352;-60
2023/03/12 04:59:28;;;;;;;;;;;;;;;25.50;39.19;93784.50;4959717;28;9084;-61
2023/03/12 05:01:56;;;;;;;;;;;;;;;25.49;39.89;93778.25;4959335;28;9031;-62
2023/03/12 05:04:24;;;;;;;;;;;;;;;25.49;39.67;93767.22;4977989;28;7116;-61
2023/03/12 05:06:51;;;;;;;;;;;;;;;25.49;40.11;93766.50;4976223;28;9139;-62
2023/03/12 05:09:19;;;;;;;;;;;;;;;25.49;39.65;93772.72;4968587;28;7057;-62
2023/03/12 05:11:45;;;;;;;;;;;;;;;25.49;40.06;93769.97;4966358;28;9123;-61
2023/03/12 05:14:15;;;;;;;;;;;;;;;25.47;40.07;93774.53;4965331;28;9008;-61
2023/03/12 05:16:47;;;;;;;;;;;;;;;25.49;40.11;93778.25;5004531;28;7268;-61
2023/03/12 05:19:15;;;;;;;;;;;;;;;25.49;39.50;93772.72;4965606;28;9059;-61
2023/03/12 05:21:41;;;;;;;;;;;;;;;25.49;39.34;93772.00;4995293;28;7031;-61
2023/03/12 05:24:09;;;;;;;;;;;;;;;25.49;39.67;93772.72;4984466;28;7289;-61
2023/03/12 05:26:42;;;;;;;;;;;;;;;25.49;39.74;93778.25;4973162;28;9536;-61
2023/03/12 05:29:11;;;;;;;;;;;;;;;25.49;39.79;93783.03;4977905;28;8763;-61
2023/03/12 05:31:37;;;;;;;;;;;;;;;25.48;39.96;93785.03;4993839;28;7053;-62
2023/03/12 05:34:10;;;;;;;;;;;;;;;25.50;39.65;93790.00;4961855;28;6970;-61
2023/03/12 05:36:36;;;;;;;;;;;;;;;25.49;39.07;93788.53;5000736;28;7207;-61
2023/03/12 05:39:04;;;;;;;;;;;;;;;25.48;39.97;93798.78;4990356;28;9337;-62
2023/03/12 05:41:33;;;;;;;;;;;;;;;25.50;39.39;93812.03;4974011;28;7208;-61
2023/03/12 05:43:59;;;;;;;;;;;;;;;25.49;39.87;93805.06;4969223;28;9133;-61
2023/03/12 05:46:34;;;;;;;;;;;;;;;25.47;39.20;93799.31;4972222;28;7968;-61
2023/03/12 05:49:08;;;;;;;;;;;;;;;25.47;39.02;93786.28;4975620;28;7245;-61
2023/03/12 05:51:35;;;;;;;;;;;;;;;25.48;39.57;93804.31;4972567;28;9035;-61
2023/03/12 05:54:03;;;;;;;;;;;;;;;25.48;39.68;93801.53;4998879;28;8973;-61
2023/03/12 05:56:34;;;;;;;;;;;;;;;25.48;39.90;93801.53;4966792;28;9022;-61
2023/03/12 05:59:15;;;;;;;;;;;;;;;25.47;39.34;93799.31;4960901;28;8539;-61
2023/03/12 06:01:45;;;;;;;;;;;;;;;25.46;40.13;93784.06;4974227;28;7212;-62
2023/03/12 06:04:12;;;;;;;;;;;;;;;25.47;39.02;93782.81;4972535;28;7277;-61
2023/03/12 06:06:38;;;;;;;;;;;;;;;25.47;39.98;93794.53;4972250;28;9096;-62
2023/03/12 06:09:05;;;;;;;;;;;;;;;25.48;38.96;93789.78;4989087;28;7090;-62
2023/03/12 06:11:32;;;;;;;;;;;;;;;25.48;39.40;93792.53;5001486;28;9011;-62
2023/03/12 06:14:05;;;;;;;;;;;;;;;25.45;38.98;93799.84;4965636;28;8178;-62
2023/03/12 06:16:35;;;;;;;;;;;;;;;25.48;39.38;93826.31;4973976;28;7270;-62
2023/03/12 06:19:06;;;;;;;;;;;;;;;25.47;39.80;93873.66;4972242;28;9000;-61
2023/03/12 06:21:36;;;;;;;;;;;;;;;25.49;39.50;93877.34;4974538;28;7392;-61
2023/03/12 06:24:03;;;;;;;;;;;;;;;25.50;39.18;93873.34;4980580;28;7249;-62
2023/03/12 06:26:38;;;;;;;;;;;;;;;25.51;39.49;93885.88;4989247;28;7042;-60
2023/03/12 06:29:05;;;;;;;;;;;;;;;25.50;39.63;93880.88;4966725;28;7257;-61
2023/03/12 06:31:33;;;;;;;;;;;;;;;25.48;39.57;93881.41;4981193;28;7278;-61
2023/03/12 06:34:03;;;;;;;;;;;;;;;25.50;39.71;93884.38;4970885;28;7417;-61
2023/03/12 06:36:36;;;;;;;;;;;;;;;25.47;39.44;93877.13;4971059;28;9154;-61
2023/03/12 06:39:05;;;;;;;;;;;;;;;25.50;39.77;93883.63;4967352;28;7089;-61
2023/03/12 06:41:32;;;;;;;;;;;;;;;25.50;39.02;93867.09;4987731;28;8965;-61
2023/03/12 06:44:16;;;;;;;;;;;;;;;25.49;38.97;93855.34;4967069;28;7288;-61
2023/03/12 06:46:48;;;;;;;;;;;;;;;25.50;39.05;93840.31;4970911;28;7022;-61
2023/03/12 06:49:16;;;;;;;;;;;;;;;25.48;39.66;93851.09;4972988;28;9077;-62
2023/03/12 06:51:56;;;;;;;;;;;;;;;25.48;39.70;93837.34;4978931;28;7349;-62
2023/03/12 06:54:41;;;;;;;;;;;;;;;25.50;39.64;93848.56;4973683;28;9052;-62
2023/03/12 06:57:11;;;;;;;;;;;;;;;25.49;39.72;93849.81;4986402;28;9068;-61
2023/03/12 06:59:37;;;;;;;;;;;;;;;25.51;38.93;93861.09;4975237;28;7191;-62
2023/03/12 07:02:14;;;;;;;;;;;;;;;25.51;39.55;93865.84;4973166;28;7493;-62
2023/03/12 07:04:44;;;;;;;;;;;;;;;25.51;39.04;93863.84;4967263;28;7454;-62
2023/03/12 07:07:26;;;;;;;;;;;;;;;25.54;39.03;93868.28;4970911;28;7735;-62
2023/03/12 07:09:58;;;;;;;;;;;;;;;25.54;40.04;93868.28;4962512;28;9644;-62
2023/03/12 07:12:24;;;;;;;;;;;;;;;25.54;39.58;93873.03;4970763;28;7280;-62
2023/03/12 07:15:00;;;;;;;;;;;;;;;25.51;39.49;93874.84;4974121;28;9118;-62
2023/03/12 07:17:29;;;;;;;;;;;;;;;25.53;39.69;93883.34;4985959;28;7263;-62
2023/03/12 07:19:56;;;;;;;;;;;;;;;25.52;38.96;93887.34;4972572;28;7129;-62
2023/03/12 07:22:27;;;;;;;;;;;;;;;25.52;39.16;93873.56;4991684;28;7067;-61
2023/03/12 07:25:10;;;;;;;;;;;;;;;25.53;39.20;93883.34;4972974;28;7249;-61
2023/03/12 07:27:51;;;;;;;;;;;;;;;25.55;39.79;93897.31;4966827;28;7258;-62
2023/03/12 07:30:32;;;;;;;;;;;;;;;25.54;39.48;93893.06;4967486;28;7042;-62
2023/03/12 07:33:00;;;;;;;;;;;;;;;25.58;39.54;93899.00;4996080;28;9095;-62
2023/03/12 07:35:27;;;;;;;;;;;;;;;25.60;39.84;93917.78;4966189;28;7314;-60
2023/03/12 07:37:54;;;;;;;;;;;;;;;25.66;40.02;93910.94;4967299;28;9839;-61
2023/03/12 07:40:23;;;;;;;;;;;;;;;25.69;39.39;93918.13;4971560;28;9019;-61
2023/03/12 07:42:49;;;;;;;;;;;;;;;25.66;38.61;93924.72;4972736;28;7286;-61
2023/03/12 07:45:18;;;;;;;;;;;;;;;25.68;39.44;93924.19;4970261;28;8908;-60
2023/03/12 07:47:46;;;;;;;;;;;;;;;25.65;39.85;93922.47;4960039;28;7407;-60
2023/03/12 07:50:15;;;;;;;;;;;;;;;25.61;39.57;93920.00;4970841;28;6970;-61
2023/03/12 07:52:53;;;;;;;;;;;;;;;25.59;40.43;93922.56;4969851;28;7206;-61
2023/03/12 07:55:38;;;;;;;;;;;;;;;25.61;40.12;93925.53;4974397;28;8645;-61
2023/03/12 07:58:21;;;;;;;;;;;;;;;25.62;40.06;93915.25;4997144;28;7227;-60
2023/03/12 08:00:52;;;;;;;;;;;;;;;25.61;39.76;93917.25;4972078;28;9407;-60
2023/03/12 08:03:18;;;;;;;;;;;;;;;25.60;39.76;93913.00;4970643;28;7247;-61
2023/03/12 08:06:05;;;;;;;;;;;;;;;25.61;39.70;93911.00;4973496;28;8659;-61
2023/03/12 08:08:32;;;;;;;;;;;;;;;25.60;39.57;93921.25;4969084;28;7511;-62
2023/03/12 08:11:05;;;;;;;;;;;;;;;25.61;39.41;93922.75;5000784;28;7198;-60
2023/03/12 08:13:31;;;;;;;;;;;;;;;25.62;39.74;93929.75;4969131;28;7007;-60
2023/03/12 08:16:04;;;;;;;;;;;;;;;25.62;39.87;93929.03;4955787;28;7678;-60
2023/03/12 08:18:30;;;;;;;;;;;;;;;25.61;39.46;93931.03;4972948;28;9159;-60
2023/03/12 08:21:15;;;;;;;;;;;;;;;25.60;39.50;93935.03;4965317;28;7020;-60
2023/03/12 08:23:42;;;;;;;;;;;;;;;25.64;39.80;93937.50;4968690;28;8903;-60
2023/03/12 08:26:08;;;;;;;;;;;;;;;25.68;39.80;93935.19;4971247;28;7507;-60
2023/03/12 08:28:49;;;;;;;;;;;;;;;25.73;39.58;93931.63;4972486;28;6967;-60
2023/03/12 08:31:15;;;;;;;;;;;;;;;25.75;39.50;93942.88;4970087;28;9058;-60
2023/03/12 08:33:46;;;;;;;;;;;;;;;25.77;39.41;93945.84;4969783;28;7167;-60
2023/03/12 08:36:41;;;;;;;;;;;;;;;25.76;39.11;93947.84;4966886;28;7033;-61
2023/03/12 08:39:08;;;;;;;;;;;;;;;25.73;39.63;93950.91;4947681;29;7101;-61
2023/03/12 08:41:33;;;;;;;;;;;;;;;25.70;40.15;93960.97;4935690;29;7650;-61
2023/03/12 08:44:11;;;;;;;;;;;;;;;25.71;39.71;93964.47;4950240;29;7280;-62
2023/03/12 08:46:46;;;;;;;;;;;;;;;25.69;39.59;93969.72;4942874;29;7479;-61
2023/03/12 08:49:22;;;;;;;;;;;;;;;25.65;39.76;93964.53;4923721;29;7042;-61
2023/03/12 08:51:50;;;;;;;;;;;;;;;25.68;40.71;93963.50;4947190;29;8661;-61
2023/03/12 08:54:29;;;;;;;;;;;;;;;25.67;40.54;93964.75;4932312;29;9503;-61
2023/03/12 08:57:07;;;;;;;;;;;;;;;25.70;40.07;93963.72;4935929;29;7004;-62
2023/03/12 08:59:35;;;;;;;;;;;;;;;25.69;39.75;93962.22;4943041;29;9010;-62
2023/03/12 09:02:01;;;;;;;;;;;;;;;25.69;40.21;93961.47;4949195;29;7139;-62
2023/03/12 09:04:27;;;;;;;;;;;;;;;25.67;40.41;93964.00;4931396;29;7193;-62
2023/03/12 09:06:53;;;;;;;;;;;;;;;25.66;40.98;93965.28;4948564;29;9006;-62
2023/03/12 09:09:30;;;;;;;;;;;;;;;25.66;40.52;93959.75;4948158;29;9138;-62
2023/03/12 09:12:05;;;;;;;;;;;;;;;25.65;40.75;93961.75;4937137;29;7191;-62
2023/03/12 09:14:38;;;;;;;;;;;;;;;25.64;40.41;93965.81;4950493;29;9090;-62
2023/03/12 09:17:05;;;;;;;;;;;;;;;25.64;40.65;93965.06;4992210;28;7104;-62
2023/03/12 09:19:31;;;;;;;;;;;;;;;25.65;40.64;93961.00;4965910;28;7279;-62
2023/03/12 09:22:03;;;;;;;;;;;;;;;25.63;41.01;93969.81;4964798;28;9094;-62
2023/03/12 09:24:29;;;;;;;;;;;;;;;25.63;40.55;93971.81;4967718;28;7503;-62
2023/03/12 09:27:06;;;;;;;;;;;;;;;25.63;40.58;93967.06;4971834;28;9615;-62
2023/03/12 09:29:48;;;;;;;;;;;;;;;25.62;40.47;93962.06;4961378;28;7138;-62
2023/03/12 09:32:26;;;;;;;;;;;;;;;25.63;39.97;93972.56;4973199;28;9671;-62
2023/03/12 09:35:40;;;;;;;;;;;;;;;25.65;40.97;93980.28;4968697;28;7266;-62
2023/03/12 09:38:44;;;;;;;;;;;;;;;25.65;39.88;93975.53;4974553;28;7116;-62
2023/03/12 09:41:23;;;;;;;;;;;;;;;25.65;40.82;93978.28;4946734;28;9357;-62
2023/03/12 09:44:19;;;;;;;;;;;;;;;25.64;40.05;93973.31;4930612;28;8969;-61
2023/03/12 09:46:55;;;;;;;;;;;;;;;25.63;40.27;93980.81;4943083;28;7316;-62
2023/03/12 09:49:40;;;;;;;;;;;;;;;25.61;40.55;93983.34;4934792;28;7021;-62
2023/03/12 09:52:47;;;;;;;;;;;;;;;25.63;41.00;93985.59;4929924;28;7410;-62
2023/03/12 09:55:24;;;;;;;;;;;;;;;25.63;40.73;93989.09;4932814;29;7254;-62
2023/03/12 09:58:34;;;;;;;;;;;;;;;25.64;40.73;93989.84;4959808;28;7274;-62
2023/03/12 10:01:19;;;;;;;;;;;;;;;25.63;40.66;93980.81;4964687;28;9247;-62
2023/03/12 10:04:02;;;;;;;;;;;;;;;25.63;40.46;93983.56;4936805;28;7143;-63
2023/03/12 10:07:10;;;;;;;;;;;;;;;25.64;40.91;93990.59;4936482;28;9017;-62
2023/03/12 10:10:09;;;;;;;;;;;;;;;25.64;40.82;94009.88;4951022;28;9039;-62
2023/03/12 10:12:40;;;;;;;;;;;;;;;25.65;40.12;94011.34;4974017;28;8205;-63
2023/03/12 10:15:36;;;;;;;;;;;;;;;25.65;41.02;94010.59;4966409;28;9022;-62
2023/03/12 10:18:25;;;;;;;;;;;;;;;25.64;40.03;94017.38;4959814;28;9350;-62
2023/03/12 10:21:15;;;;;;;;;;;;;;;25.64;40.10;94004.34;4980466;28;8997;-61
2023/03/12 10:24:15;;;;;;;;;;;;;;;25.64;40.73;94009.88;4988014;28;9339;-62
2023/03/12 10:27:00;;;;;;;;;;;;;;;25.63;39.91;94015.88;4975091;28;7282;-63
2023/03/12 10:29:42;;;;;;;;;;;;;;;25.64;40.71;94020.13;4974365;28;9303;-62
2023/03/12 10:32:45;;;;;;;;;;;;;;;25.64;41.02;94020.13;4975005;28;9319;-62
2023/03/12 10:35:23;;;;;;;;;;;;;;;25.62;41.11;94011.66;4972362;28;7220;-63
2023/03/12 10:38:12;;;;;;;;;;;;;;;25.62;40.75;94015.13;4949981;28;7052;-62
2023/03/12 10:40:40;;;;;;;;;;;;;;;25.64;40.66;94020.13;4955011;28;9072;-62
2023/03/12 10:43:15;;;;;;;;;;;;;;;25.60;40.31;94014.91;4948423;28;9195;-62
2023/03/12 10:49:22;;;;;;;;;;;;;;;25.63;40.02;94024.88;4971397;28;9086;-62
2023/03/12 10:51:58;;;;;;;;;;;;;;;25.62;40.02;94017.88;4966821;28;7039;-63
2023/03/12 10:54:43;;;;;;;;;;;;;;;25.64;40.76;94033.91;4946432;28;9384;-62
2023/03/12 10:57:22;;;;;;;;;;;;;;;25.65;40.37;94047.16;4963796;28;7058;-62
2023/03/12 11:00:16;;;;;;;;;;;;;;;25.65;40.91;94069.19;4972412;28;9192;-62
2023/03/12 11:02:44;;;;;;;;;;;;;;;25.64;39.89;94064.94;4968705;28;8321;-62
2023/03/12 11:05:23;;;;;;;;;;;;;;;25.64;40.34;94064.94;4962593;28;7208;-62
2023/03/12 11:08:01;;;;;;;;;;;;;;;25.65;40.81;94077.44;4966477;28;9184;-62
2023/03/12 11:10:57;;;;;;;;;;;;;;;25.65;40.02;94082.97;4949878;28;9040;-62
2023/03/12 11:13:31;;;;;;;;;;;;;;;25.66;40.35;94097.47;4970989;28;7349;-62
2023/03/12 11:16:41;;;;;;;;;;;;;;;25.66;39.89;94100.22;4976894;28;8765;-62
2023/03/12 11:19:41;;;;;;;;;;;;;;;25.65;39.80;94099.47;4998503;28;7684;-62
2023/03/12 11:22:10;;;;;;;;;;;;;;;25.64;40.45;94106.25;4973043;28;9513;-62
2023/03/12 11:25:04;;;;;;;;;;;;;;;25.61;39.94;94110.03;4960070;28;7097;-62
2023/03/12 11:28:04;;;;;;;;;;;;;;;25.64;40.24;94109.03;4947499;28;9058;-62
2023/03/12 11:30:39;;;;;;;;;;;;;;;25.64;40.37;94106.25;4931872;29;8191;-63
2023/03/12 11:33:34;;;;;;;;;;;;;;;25.64;39.87;94109.03;4930261;29;9059;-63
2023/03/12 11:36:20;;;;;;;;;;;;;;;25.64;39.79;94114.53;4840935;29;9167;-63
2023/03/12 11:39:24;;;;;;;;;;;;;;;25.64;40.46;94108.28;4840845;29;8819;-62
2023/03/12 11:42:28;;;;;;;;;;;;;;;25.64;40.17;94117.28;4840377;29;7036;-62
2023/03/12 11:45:53;;;;;;;;;;;;;;;25.63;40.75;94115.78;4824364;29;7057;-62
2023/03/12 11:48:48;;;;;;;;;;;;;;;25.62;40.60;94111.53;4840890;29;9362;-62
2023/03/12 11:51:49;;;;;;;;;;;;;;;25.62;40.02;94108.75;4818949;29;9104;-61
2023/03/12 11:54:52;;;;;;;;;;;;;;;25.61;40.76;94115.56;4847475;29;9286;-62
2023/03/12 11:57:18;;;;;;;;;;;;;;;25.62;39.94;94122.53;4826788;29;7573;-62
2023/03/12 12:00:12;;;;;;;;;;;;;;;25.62;39.76;94124.56;4821750;29;7346;-62
2023/03/12 12:02:47;;;;;;;;;;;;;;;25.63;40.37;94118.53;4809556;29;9768;-63
2023/03/12 12:06:06;;;;;;;;;;;;;;;25.64;40.72;94109.03;4809671;29;7042;-62
2023/03/12 12:09:01;;;;;;;;;;;;;;;25.63;39.88;94106.75;4839824;29;9088;-63
2023/03/12 12:12:12;;;;;;;;;;;;;;;25.62;40.18;94106.00;4846316;29;7038;-63
2023/03/12 12:15:26;;;;;;;;;;;;;;;25.62;40.73;94106.00;4903963;29;9268;-63
2023/03/12 12:17:58;;;;;;;;;;;;;;;25.63;39.97;94109.53;4848298;29;7031;-62
2023/03/12 12:20:25;;;;;;;;;;;;;;;25.61;40.65;94099.03;4897807;29;9109;-63
2023/03/12 12:26:41;;;;;;;;;;;;;;;25.63;39.73;94095.75;4915809;29;7347;-63
2023/03/12 12:29:38;;;;;;;;;;;;;;;25.64;39.78;94102.75;4933418;29;9248;-62
2023/03/12 12:32:21;;;;;;;;;;;;;;;25.62;40.07;94103.25;4935678;29;8803;-63
2023/03/12 12:35:08;;;;;;;;;;;;;;;25.63;39.78;94104.75;4938988;28;7175;-61
2023/03/12 12:38:04;;;;;;;;;;;;;;;25.63;39.90;94095.75;4912479;29;8858;-63
2023/03/12 12:40:42;;;;;;;;;;;;;;;25.65;40.50;94098.72;4917537;29;7356;-62
2023/03/12 12:43:35;;;;;;;;;;;;;;;25.65;40.69;94095.97;4908605;29;9392;-62
2023/03/12 12:46:16;;;;;;;;;;;;;;;25.63;40.45;94090.25;4940952;28;7268;-62
2023/03/12 12:49:17;;;;;;;;;;;;;;;25.66;39.65;94089.22;4962512;28;7311;-62
2023/03/12 12:52:05;;;;;;;;;;;;;;;25.65;40.60;94085.72;4947655;28;9295;-62
2023/03/12 12:54:42;;;;;;;;;;;;;;;25.65;40.05;94082.19;4970974;28;7025;-62
2023/03/12 12:57:43;;;;;;;;;;;;;;;25.65;40.32;94082.97;4953674;28;7146;-62
2023/03/12 13:00:28;;;;;;;;;;;;;;;25.65;40.25;94071.94;4906231;29;7052;-62
2023/03/12 13:02:56;;;;;;;;;;;;;;;25.69;40.46;94077.91;4927485;29;7095;-62
2023/03/12 13:05:34;;;;;;;;;;;;;;;25.69;40.01;94069.63;4916849;29;7271;-62
2023/03/12 13:08:02;;;;;;;;;;;;;;;25.66;40.27;94067.94;4932557;29;7105;-63
2023/03/12 13:10:55;;;;;;;;;;;;;;;25.76;40.10;94069.06;4931193;29;7226;-62
2023/03/12 13:13:23;;;;;;;;;;;;;;;25.80;39.60;94077.00;4930582;29;7130;-62
2023/03/12 13:15:50;;;;;;;;;;;;;;;25.87;40.18;94070.91;4919398;29;7479;-62
2023/03/12 13:18:30;;;;;;;;;;;;;;;25.89;39.97;94068.38;4932164;28;7023;-62
2023/03/12 13:21:08;;;;;;;;;;;;;;;25.92;39.70;94073.63;4938791;28;9194;-63
2023/03/12 13:23:58;;;;;;;;;;;;;;;25.96;39.34;94074.06;4938110;28;9138;-62
2023/03/12 13:26:46;;;;;;;;;;;;;;;25.97;39.50;94074.78;4953298;28;7476;-62
2023/03/12 13:29:29;;;;;;;;;;;;;;;26.01;39.58;94075.25;4935601;28;7283;-62
2023/03/12 13:31:58;;;;;;;;;;;;;;;26.01;39.23;94080.78;4942784;28;7240;-62
2023/03/12 13:34:27;;;;;;;;;;;;;;;26.03;39.52;94078.25;4946498;28;7323;-62
2023/03/12 13:37:00;;;;;;;;;;;;;;;26.04;39.01;94080.47;4959391;28;7303;-62
2023/03/12 13:39:43;;;;;;;;;;;;;;;26.05;39.67;94081.97;4961966;28;7238;-63
2023/03/12 13:42:36;;;;;;;;;;;;;;;26.07;40.00;94089.72;4985287;28;7475;-62
2023/03/12 13:46:14;;;;;;;;;;;;;;;26.09;39.28;94078.94;4967777;28;8460;-62
2023/03/12 13:48:46;;;;;;;;;;;;;;;26.03;39.06;94081.00;4923455;28;7517;-61
2023/03/12 13:51:25;;;;;;;;;;;;;;;25.97;39.63;94089.31;4919878;28;7206;-62
2023/03/12 13:54:03;;;;;;;;;;;;;;;25.95;39.65;94089.09;4938243;28;7334;-62